Time;durP1;ratioP1;P1;durP2;ratioP2;P2;SDS_P1;SDS_P2;PMS_P1;PMS_P2;Temp;Humidity;BMP_temperature;BMP_pressure;BME280_temperature;BME280_humidity;BME280_pressure;Samples;Min_cycle;Max_cycle;Signal;HPM_P1;HPM_P2
2024/01/02 00:01:48;;;;;;;0.40;0.40;;;;;;;6.36;100.00;98228.44;5095996;28;20120;-59
2024/01/02 00:04:17;;;;;;;0.30;0.30;;;;;;;6.40;100.00;98215.47;5091471;28;20059;-59
2024/01/02 00:06:44;;;;;;;0.40;0.40;;;;;;;6.32;100.00;98218.53;5080401;28;20046;-59
2024/01/02 00:09:11;;;;;;;0.40;0.40;;;;;;;6.37;100.00;98213.31;5073853;28;20050;-60
2024/01/02 00:11:38;;;;;;;0.40;0.40;;;;;;;6.39;100.00;98205.84;5092526;28;20075;-60
2024/01/02 00:14:05;;;;;;;0.30;0.30;;;;;;;6.26;100.00;98191.00;5090352;28;20056;-61
2024/01/02 00:16:32;;;;;;;0.40;0.40;;;;;;;6.24;100.00;98188.59;5064770;28;20048;-60
2024/01/02 00:18:59;;;;;;;0.47;0.47;;;;;;;6.26;100.00;98185.69;5076430;28;20082;-61
2024/01/02 00:21:27;;;;;;;0.30;0.30;;;;;;;6.25;100.00;98184.88;5091842;28;20051;-60
2024/01/02 00:23:54;;;;;;;0.40;0.40;;;;;;;6.28;100.00;98177.47;5075504;28;20043;-61
2024/01/02 00:26:22;;;;;;;0.40;0.40;;;;;;;6.31;100.00;98169.00;5096542;28;20044;-61
2024/01/02 00:28:49;;;;;;;0.30;0.30;;;;;;;6.20;100.00;98176.00;5099257;28;20465;-60
2024/01/02 00:31:16;;;;;;;0.30;0.30;;;;;;;6.22;100.00;98163.28;5087511;28;20167;-60
2024/01/02 00:33:43;;;;;;;0.30;0.30;;;;;;;6.24;100.00;98156.66;5092990;28;20142;-60
2024/01/02 00:36:11;;;;;;;0.30;0.30;;;;;;;6.19;100.00;98147.78;5079098;28;20116;-60
2024/01/02 00:38:39;;;;;;;0.32;0.32;;;;;;;6.29;100.00;98141.81;5074065;28;20139;-60
2024/01/02 00:41:06;;;;;;;0.40;0.40;;;;;;;6.36;100.00;98143.28;5097196;28;20050;-60
2024/01/02 00:43:33;;;;;;;0.40;0.40;;;;;;;6.32;100.00;98133.38;5078979;28;20557;-60
2024/01/02 00:46:00;;;;;;;0.40;0.40;;;;;;;6.19;100.00;98127.31;5088739;28;20324;-59
2024/01/02 00:48:28;;;;;;;0.40;0.40;;;;;;;6.14;100.00;98127.25;5098451;28;20057;-59
2024/01/02 00:50:54;;;;;;;0.30;0.30;;;;;;;6.16;100.00;98124.31;5094815;28;20168;-59
2024/01/02 00:53:21;;;;;;;0.38;0.38;;;;;;;6.20;100.00;98117.47;5093610;28;20050;-59
2024/01/02 00:55:50;;;;;;;0.28;0.28;;;;;;;6.12;100.00;98113.34;5096003;28;20050;-59
2024/01/02 00:58:17;;;;;;;0.32;0.32;;;;;;;6.20;100.00;98107.63;5089783;28;20424;-59
2024/01/02 01:00:44;;;;;;;0.30;0.30;;;;;;;6.09;100.00;98102.38;5095472;28;20150;-58
2024/01/02 01:03:11;;;;;;;0.25;0.25;;;;;;;5.98;100.00;98093.44;5089779;28;20044;-59
2024/01/02 01:05:38;;;;;;;0.40;0.40;;;;;;;5.99;100.00;98085.22;5092607;28;20120;-59
2024/01/02 01:08:06;;;;;;;0.30;0.30;;;;;;;6.00;100.00;98083.34;5097991;28;20195;-59
2024/01/02 01:10:33;;;;;;;0.40;0.40;;;;;;;5.94;100.00;98076.31;5098142;28;20051;-62
2024/01/02 01:13:01;;;;;;;0.50;0.50;;;;;;;5.94;100.00;98066.53;5090874;28;20127;-59
2024/01/02 01:15:28;;;;;;;0.43;0.43;;;;;;;5.99;100.00;98065.78;5090268;28;20206;-59
2024/01/02 01:17:56;;;;;;;0.50;0.50;;;;;;;5.95;100.00;98057.47;5092178;28;20142;-59
2024/01/02 01:20:23;;;;;;;0.40;0.40;;;;;;;5.99;100.00;98061.28;5098049;28;20047;-59
2024/01/02 01:22:53;;;;;;;0.40;0.40;;;;;;;5.86;100.00;98048.25;5090301;28;20080;-59
2024/01/02 01:25:20;;;;;;;0.50;0.50;;;;;;;5.87;100.00;98041.09;5091715;28;20071;-59
2024/01/02 01:27:47;;;;;;;0.40;0.40;;;;;;;5.88;100.00;98035.53;5092897;28;20127;-59
2024/01/02 01:30:16;;;;;;;0.40;0.40;;;;;;;5.88;100.00;98024.09;5087154;28;20050;-62
2024/01/02 01:32:43;;;;;;;0.40;0.40;;;;;;;5.78;100.00;98020.19;5090420;28;20138;-60
2024/01/02 01:35:10;;;;;;;0.40;0.40;;;;;;;5.83;100.00;98014.16;5091127;28;20724;-61
2024/01/02 01:37:37;;;;;;;0.32;0.32;;;;;;;5.85;100.00;98014.75;5097569;28;20589;-61
2024/01/02 01:40:06;;;;;;;0.40;0.40;;;;;;;5.90;100.00;97998.88;5094983;28;20147;-61
2024/01/02 01:42:33;;;;;;;0.40;0.40;;;;;;;5.94;100.00;97996.53;5091978;28;20474;-61
2024/01/02 01:45:00;;;;;;;0.38;0.38;;;;;;;5.90;100.00;97982.09;5077756;28;20047;-60
2024/01/02 01:47:28;;;;;;;0.43;0.43;;;;;;;5.90;100.00;97979.44;5095963;28;20056;-60
2024/01/02 01:49:55;;;;;;;0.40;0.40;;;;;;;5.79;100.00;97963.34;5068843;28;20142;-61
2024/01/02 01:52:22;;;;;;;0.40;0.40;;;;;;;5.83;100.00;97967.09;5074203;28;20069;-61
2024/01/02 01:54:49;;;;;;;0.30;0.30;;;;;;;5.83;100.00;97956.47;5093653;28;20051;-61
2024/01/02 01:57:16;;;;;;;0.50;0.50;;;;;;;5.76;100.00;97942.53;5091416;28;20100;-61
2024/01/02 01:59:43;;;;;;;0.43;0.43;;;;;;;5.87;100.00;97929.41;5064445;28;20036;-61
2024/01/02 02:02:11;;;;;;;0.40;0.40;;;;;;;5.84;100.00;97926.19;5072002;28;20135;-61
2024/01/02 02:04:41;;;;;;;0.47;0.47;;;;;;;5.87;100.00;97916.13;5075144;28;20121;-62
2024/01/02 02:07:07;;;;;;;0.40;0.40;;;;;;;5.97;100.00;97910.97;5091942;28;20047;-61
2024/01/02 02:09:34;;;;;;;0.40;0.40;;;;;;;5.80;100.00;97905.63;5063000;28;20360;-60
2024/01/02 02:12:01;;;;;;;0.30;0.30;;;;;;;5.74;100.00;97907.44;5073756;28;20350;-60
2024/01/02 02:14:28;;;;;;;0.40;0.40;;;;;;;5.80;100.00;97884.38;5092737;28;20159;-60
2024/01/02 02:16:55;;;;;;;0.40;0.40;;;;;;;5.75;100.00;97885.09;5094254;28;20134;-61
2024/01/02 02:19:23;;;;;;;0.40;0.40;;;;;;;5.75;100.00;97874.47;5073986;28;20453;-61
2024/01/02 02:21:52;;;;;;;0.40;0.40;;;;;;;5.79;100.00;97861.47;5081553;28;20144;-60
2024/01/02 02:24:20;;;;;;;0.43;0.43;;;;;;;5.79;100.00;97854.31;5078345;28;20158;-61
2024/01/02 02:26:48;;;;;;;0.40;0.40;;;;;;;5.78;100.00;97860.66;5098237;28;20047;-60
2024/01/02 02:29:15;;;;;;;0.40;0.40;;;;;;;5.74;100.00;97843.63;5093613;28;20054;-60
2024/01/02 02:31:42;;;;;;;0.32;0.32;;;;;;;5.73;100.00;97842.00;5092903;28;20059;-60
2024/01/02 02:34:09;;;;;;;0.40;0.40;;;;;;;5.80;100.00;97842.63;5075341;28;20130;-60
2024/01/02 02:36:36;;;;;;;0.40;0.40;;;;;;;5.80;100.00;97825.88;5087164;28;20054;-61
2024/01/02 02:39:03;;;;;;;0.50;0.50;;;;;;;5.75;100.00;97813.31;5076987;28;20059;-60
2024/01/02 02:41:32;;;;;;;0.40;0.40;;;;;;;5.76;100.00;97814.09;5084368;28;20048;-60
2024/01/02 02:43:59;;;;;;;0.40;0.40;;;;;;;5.73;100.00;97798.66;5075346;28;20510;-60
2024/01/02 02:46:26;;;;;;;0.50;0.50;;;;;;;5.74;100.00;97801.09;5092716;28;20073;-62
2024/01/02 02:48:53;;;;;;;0.40;0.40;;;;;;;5.67;100.00;97784.50;5089035;28;20067;-60
2024/01/02 02:51:20;;;;;;;0.38;0.38;;;;;;;5.70;100.00;97776.03;5088909;28;20056;-62
2024/01/02 02:53:47;;;;;;;0.50;0.50;;;;;;;5.68;100.00;97764.03;5077074;28;20140;-60
2024/01/02 02:56:15;;;;;;;0.35;0.35;;;;;;;5.72;100.00;97759.84;5078230;28;20043;-61
2024/01/02 02:58:44;;;;;;;0.40;0.40;;;;;;;5.66;100.00;97744.88;5068892;28;20092;-60
2024/01/02 03:01:21;;;;;;;0.40;0.40;;;;;;;5.81;100.00;97732.56;5086916;28;20404;-60
2024/01/02 03:03:48;;;;;;;0.40;0.40;;;;;;;5.72;100.00;97731.41;5090968;28;20402;-60
2024/01/02 03:06:15;;;;;;;0.40;0.40;;;;;;;5.88;100.00;97715.63;5089707;28;20047;-60
2024/01/02 03:08:42;;;;;;;0.50;0.50;;;;;;;5.76;100.00;97716.53;5069142;28;20178;-60
2024/01/02 03:11:09;;;;;;;0.38;0.38;;;;;;;5.87;100.00;97692.75;5092812;28;20650;-60
2024/01/02 03:13:36;;;;;;;0.43;0.43;;;;;;;5.74;100.00;97692.09;5092459;28;20040;-60
2024/01/02 03:16:05;;;;;;;0.30;0.30;;;;;;;5.76;100.00;97691.81;5087916;28;20048;-60
2024/01/02 03:18:32;;;;;;;0.50;0.50;;;;;;;5.80;100.00;97672.47;5091528;28;20047;-60
2024/01/02 03:20:59;;;;;;;0.30;0.30;;;;;;;5.82;100.00;97678.34;5093982;28;20054;-60
2024/01/02 03:23:26;;;;;;;0.40;0.40;;;;;;;5.80;100.00;97675.13;5092284;28;20131;-60
2024/01/02 03:25:53;;;;;;;0.30;0.30;;;;;;;5.80;100.00;97666.34;5093409;28;20158;-60
2024/01/02 03:28:20;;;;;;;0.40;0.40;;;;;;;5.93;100.00;97659.84;5084768;28;20113;-60
2024/01/02 03:30:47;;;;;;;0.40;0.40;;;;;;;5.88;100.00;97651.81;5087369;28;20159;-60
2024/01/02 03:33:16;;;;;;;0.40;0.40;;;;;;;5.91;100.00;97643.31;5093504;28;20044;-60
2024/01/02 03:35:43;;;;;;;0.40;0.40;;;;;;;5.94;100.00;97642.84;5082650;28;20054;-60
2024/01/02 03:38:10;;;;;;;0.40;0.40;;;;;;;5.93;100.00;97639.34;5071031;28;20509;-60
2024/01/02 03:40:37;;;;;;;0.40;0.40;;;;;;;5.94;100.00;97630.38;5089829;28;20703;-60
2024/01/02 03:43:04;;;;;;;0.40;0.40;;;;;;;5.95;100.00;97620.53;5093024;28;20044;-60
2024/01/02 03:45:31;;;;;;;0.50;0.50;;;;;;;6.12;100.00;97613.25;5090399;28;20048;-60
2024/01/02 03:47:58;;;;;;;0.40;0.40;;;;;;;6.07;100.00;97610.53;5091459;28;20138;-60
2024/01/02 03:50:26;;;;;;;0.43;0.43;;;;;;;6.12;100.00;97594.63;5093720;28;20097;-60
2024/01/02 03:52:53;;;;;;;0.35;0.35;;;;;;;6.11;100.00;97589.53;5092612;28;20048;-60
2024/01/02 03:55:20;;;;;;;0.30;0.30;;;;;;;6.12;100.00;97588.50;5100529;28;20473;-60
2024/01/02 03:57:48;;;;;;;0.40;0.40;;;;;;;6.05;100.00;97573.53;5066949;28;20040;-60
2024/01/02 04:00:15;;;;;;;0.30;0.30;;;;;;;6.11;100.00;97577.03;5098335;28;20048;-61
2024/01/02 04:02:42;;;;;;;0.38;0.38;;;;;;;6.20;100.00;97564.09;5098181;28;20062;-60
2024/01/02 04:05:10;;;;;;;0.40;0.40;;;;;;;6.17;100.00;97556.63;5094159;28;20198;-59
2024/01/02 04:07:39;;;;;;;0.40;0.40;;;;;;;6.25;100.00;97554.28;5089591;28;20042;-61
2024/01/02 04:10:07;;;;;;;0.50;0.50;;;;;;;6.19;100.00;97544.66;5095498;28;20047;-61
2024/01/02 04:12:34;;;;;;;0.30;0.30;;;;;;;6.28;100.00;97533.53;5095441;28;20511;-58
2024/01/02 04:15:01;;;;;;;0.40;0.40;;;;;;;6.31;100.00;97519.72;5093896;28;20043;-61
2024/01/02 04:17:28;;;;;;;0.30;0.30;;;;;;;6.34;100.00;97505.91;5095874;28;20134;-61
2024/01/02 04:19:55;;;;;;;0.40;0.40;;;;;;;6.33;100.00;97485.69;5097633;28;20044;-60
2024/01/02 04:22:22;;;;;;;0.22;0.22;;;;;;;6.35;100.00;97483.56;5087963;28;20112;-61
2024/01/02 04:24:51;;;;;;;0.30;0.30;;;;;;;6.42;100.00;97476.97;5098051;28;20050;-61
2024/01/02 04:27:18;;;;;;;0.32;0.32;;;;;;;6.43;100.00;97464.44;5095852;28;20704;-61
2024/01/02 04:29:45;;;;;;;0.40;0.40;;;;;;;6.44;100.00;97447.41;5094733;28;20055;-61
2024/01/02 04:32:12;;;;;;;0.35;0.35;;;;;;;6.52;100.00;97449.59;5096548;28;20063;-61
2024/01/02 04:34:39;;;;;;;0.40;0.40;;;;;;;6.56;100.00;97428.56;5094288;28;20081;-61
2024/01/02 04:37:06;;;;;;;0.30;0.30;;;;;;;6.57;100.00;97425.66;5089172;28;20048;-61
2024/01/02 04:39:33;;;;;;;0.30;0.30;;;;;;;6.60;100.00;97424.34;5092293;28;20154;-61
2024/01/02 04:42:02;;;;;;;0.40;0.40;;;;;;;6.68;100.00;97443.25;5080143;28;20301;-61
2024/01/02 04:44:29;;;;;;;0.40;0.40;;;;;;;6.68;100.00;97435.28;5095138;28;20056;-61
2024/01/02 04:46:57;;;;;;;0.30;0.30;;;;;;;6.79;100.00;97435.31;5093893;28;20048;-60
2024/01/02 04:49:24;;;;;;;0.40;0.40;;;;;;;6.78;100.00;97439.03;5095294;28;20050;-61
2024/01/02 04:51:53;;;;;;;0.40;0.40;;;;;;;6.88;100.00;97439.06;5087932;28;20214;-61
2024/01/02 04:54:20;;;;;;;0.40;0.40;;;;;;;6.79;100.00;97422.81;5075279;28;20059;-61
2024/01/02 04:56:47;;;;;;;0.45;0.45;;;;;;;6.91;100.00;97410.06;5088628;28;20032;-60
2024/01/02 04:59:15;;;;;;;0.40;0.40;;;;;;;6.92;100.00;97400.22;5094582;28;20837;-61
2024/01/02 05:01:42;;;;;;;0.40;0.40;;;;;;;6.88;100.00;97412.44;5097651;28;20620;-60
2024/01/02 05:04:10;;;;;;;0.30;0.30;;;;;;;7.00;100.00;97409.53;5088529;28;20056;-60
2024/01/02 05:06:37;;;;;;;0.30;0.30;;;;;;;6.93;100.00;97395.69;5094760;28;20044;-61
2024/01/02 05:09:05;;;;;;;0.40;0.40;;;;;;;6.95;100.00;97402.34;5092487;28;20044;-61
2024/01/02 05:11:36;;;;;;;0.40;0.40;;;;;;;6.94;100.00;97395.44;5096538;28;20087;-61
2024/01/02 05:14:05;;;;;;;0.30;0.30;;;;;;;6.96;100.00;97393.28;5096057;28;20431;-61
2024/01/02 05:16:33;;;;;;;0.30;0.30;;;;;;;6.94;100.00;97384.78;5098990;28;20046;-61
2024/01/02 05:19:00;;;;;;;0.35;0.35;;;;;;;6.96;100.00;97379.16;5097022;28;20597;-60
2024/01/02 05:21:27;;;;;;;0.30;0.30;;;;;;;6.96;100.00;97385.28;5096316;28;20092;-60
2024/01/02 05:23:54;;;;;;;0.40;0.40;;;;;;;7.02;100.00;97373.59;5097756;28;21042;-60
2024/01/02 05:26:21;;;;;;;0.30;0.30;;;;;;;7.05;100.00;97365.06;5093472;28;20036;-59
2024/01/02 05:28:48;;;;;;;0.30;0.30;;;;;;;7.12;100.00;97375.47;5098473;28;20174;-59
2024/01/02 05:31:15;;;;;;;0.40;0.40;;;;;;;7.12;100.00;97368.28;5086591;28;20105;-61
2024/01/02 05:33:44;;;;;;;0.30;0.30;;;;;;;7.13;100.00;97385.06;5088783;28;20040;-59
2024/01/02 05:36:11;;;;;;;0.30;0.30;;;;;;;7.13;100.00;97363.72;5088969;28;20064;-59
2024/01/02 05:38:38;;;;;;;0.20;0.20;;;;;;;7.27;100.00;97369.34;5090477;28;20462;-60
2024/01/02 05:41:05;;;;;;;0.40;0.40;;;;;;;7.29;100.00;97368.03;5090291;28;20526;-60
2024/01/02 05:43:32;;;;;;;0.30;0.30;;;;;;;7.26;100.00;97368.56;5090767;28;20470;-59
2024/01/02 05:45:58;;;;;;;0.40;0.40;;;;;;;7.39;100.00;97369.88;5096780;28;20047;-60
2024/01/02 05:48:25;;;;;;;0.40;0.40;;;;;;;7.48;100.00;97364.81;5097463;28;20461;-60
2024/01/02 05:50:53;;;;;;;0.40;0.40;;;;;;;7.42;100.00;97357.91;5091841;28;20173;-60
2024/01/02 05:53:21;;;;;;;0.40;0.40;;;;;;;7.53;100.00;97368.25;5095412;28;20610;-59
2024/01/02 05:55:48;;;;;;;0.30;0.30;;;;;;;7.55;100.00;97368.81;5091546;28;20044;-59
2024/01/02 05:58:15;;;;;;;0.38;0.38;;;;;;;7.63;100.00;97372.00;5082500;28;20110;-59
2024/01/02 06:00:42;;;;;;;0.38;0.38;;;;;;;7.54;100.00;97374.41;5093261;28;20070;-59
2024/01/02 06:03:10;;;;;;;0.20;0.20;;;;;;;7.54;100.00;97351.22;5074580;28;20054;-59
2024/01/02 06:05:39;;;;;;;0.30;0.30;;;;;;;7.59;100.00;97381.59;5093160;28;20059;-59
2024/01/02 06:08:08;;;;;;;0.30;0.30;;;;;;;7.68;100.00;97390.66;5087977;28;20151;-59
2024/01/02 06:10:36;;;;;;;0.30;0.30;;;;;;;7.70;100.00;97396.53;5093815;28;20093;-59
2024/01/02 06:13:04;;;;;;;0.25;0.25;;;;;;;7.71;100.00;97408.78;5092735;28;20101;-59
2024/01/02 06:15:32;;;;;;;0.30;0.30;;;;;;;7.72;100.00;97391.72;5095992;28;20051;-59
2024/01/02 06:17:59;;;;;;;0.30;0.30;;;;;;;7.65;100.00;97401.88;5083605;28;20124;-60
2024/01/02 06:20:26;;;;;;;0.30;0.30;;;;;;;7.68;100.00;97401.31;5073603;28;20048;-61
2024/01/02 06:22:55;;;;;;;0.30;0.30;;;;;;;7.62;100.00;97405.06;5095584;28;20051;-59
2024/01/02 06:25:23;;;;;;;0.40;0.40;;;;;;;7.68;100.00;97398.66;5093361;28;20365;-59
2024/01/02 06:27:50;;;;;;;0.30;0.30;;;;;;;7.65;100.00;97399.19;5082540;28;20036;-59
2024/01/02 06:30:18;;;;;;;0.50;0.50;;;;;;;7.64;100.00;97389.56;5093723;28;20047;-60
2024/01/02 06:32:46;;;;;;;0.30;0.30;;;;;;;7.74;100.00;97390.38;5091497;28;20063;-59
2024/01/02 06:35:13;;;;;;;0.30;0.30;;;;;;;7.82;100.00;97399.72;5095452;28;20044;-60
2024/01/02 06:37:40;;;;;;;0.40;0.40;;;;;;;7.78;100.00;97395.97;5095355;28;20043;-60
2024/01/02 06:40:09;;;;;;;0.30;0.30;;;;;;;7.85;100.00;97393.84;5089821;28;20036;-59
2024/01/02 06:42:38;;;;;;;0.30;0.30;;;;;;;7.82;100.00;97405.03;5094741;28;20036;-59
2024/01/02 06:45:07;;;;;;;0.35;0.35;;;;;;;7.79;100.00;97413.59;5090809;28;20415;-60
2024/01/02 06:47:34;;;;;;;0.30;0.30;;;;;;;7.86;100.00;97414.13;5097230;28;20063;-60
2024/01/02 06:50:01;;;;;;;0.30;0.30;;;;;;;7.89;100.00;97407.44;5089578;28;20131;-60
2024/01/02 06:52:29;;;;;;;0.40;0.40;;;;;;;7.89;100.00;97424.25;5086544;28;20129;-59
2024/01/02 06:54:56;;;;;;;0.20;0.20;;;;;;;7.88;100.00;97422.63;5089309;28;20051;-59
2024/01/02 06:57:23;;;;;;;0.30;0.30;;;;;;;7.93;100.00;97419.94;5091261;28;20391;-59
2024/01/02 06:59:51;;;;;;;0.40;0.40;;;;;;;7.92;100.00;97434.38;5094974;28;20050;-59
2024/01/02 07:02:19;;;;;;;0.20;0.20;;;;;;;7.92;100.00;97434.38;5094055;28;20040;-59
2024/01/02 07:04:46;;;;;;;0.25;0.25;;;;;;;8.00;100.00;97441.81;5090449;28;20157;-61
2024/01/02 07:07:14;;;;;;;0.30;0.30;;;;;;;7.98;100.00;97443.94;5095731;28;20560;-59
2024/01/02 07:09:41;;;;;;;0.30;0.30;;;;;;;8.02;100.00;97446.91;5090880;28;20867;-61
2024/01/02 07:12:08;;;;;;;0.30;0.30;;;;;;;8.06;100.00;97444.47;5084497;28;20066;-59
2024/01/02 07:14:37;;;;;;;0.22;0.22;;;;;;;8.13;100.00;97437.00;5087432;28;20059;-61
2024/01/02 07:17:07;;;;;;;0.20;0.20;;;;;;;8.23;100.00;97434.31;5088050;28;20048;-59
2024/01/02 07:19:34;;;;;;;0.30;0.30;;;;;;;8.27;100.00;97427.38;5087804;28;20054;-59
2024/01/02 07:22:02;;;;;;;0.40;0.40;;;;;;;8.14;100.00;97430.63;5061972;28;20042;-61
2024/01/02 07:24:31;;;;;;;0.30;0.30;;;;;;;7.96;100.00;97430.09;5077917;28;20035;-61
2024/01/02 07:26:58;;;;;;;0.30;0.30;;;;;;;7.98;100.00;97422.59;5091110;28;20324;-59
2024/01/02 07:29:26;;;;;;;0.30;0.30;;;;;;;8.02;100.00;97422.88;5075750;28;20056;-61
2024/01/02 07:31:54;;;;;;;0.30;0.30;;;;;;;8.03;100.00;97429.00;5088683;28;20044;-61
2024/01/02 07:34:23;;;;;;;0.30;0.30;;;;;;;8.11;100.00;97431.13;5094870;28;20048;-61
2024/01/02 07:36:50;;;;;;;0.23;0.23;;;;;;;8.15;100.00;97422.31;5095613;28;20048;-61
2024/01/02 07:39:17;;;;;;;0.30;0.30;;;;;;;8.11;100.00;97425.78;5092694;28;20072;-61
2024/01/02 07:41:44;;;;;;;0.20;0.20;;;;;;;8.13;100.00;97419.13;5078934;28;20108;-61
2024/01/02 07:44:12;;;;;;;0.30;0.30;;;;;;;8.18;100.00;97434.31;5092703;28;20044;-59
2024/01/02 07:46:39;;;;;;;0.30;0.30;;;;;;;8.19;100.00;97436.72;5093304;28;20066;-61
2024/01/02 07:49:05;;;;;;;0.30;0.30;;;;;;;8.26;100.00;97433.75;5074599;28;20039;-59
2024/01/02 07:51:36;;;;;;;0.20;0.20;;;;;;;8.24;100.00;97435.09;5094390;28;20129;-61
2024/01/02 07:54:03;;;;;;;0.20;0.20;;;;;;;8.36;100.00;97427.59;5085249;28;20067;-59
2024/01/02 07:56:30;;;;;;;0.30;0.30;;;;;;;8.34;100.00;97456.44;5085313;28;20456;-60
2024/01/02 07:58:57;;;;;;;0.30;0.30;;;;;;;8.41;100.00;97446.28;5074427;28;20634;-60
2024/01/02 08:01:24;;;;;;;0.38;0.38;;;;;;;8.33;100.00;97452.16;5091844;28;20084;-60
2024/01/02 08:03:52;;;;;;;0.30;0.30;;;;;;;8.32;100.00;97454.03;5089764;28;20817;-60
2024/01/02 08:06:19;;;;;;;0.25;0.25;;;;;;;8.32;100.00;97453.25;5090465;28;20047;-61
2024/01/02 08:08:48;;;;;;;0.40;0.40;;;;;;;8.26;100.00;97432.97;5088848;28;20139;-60
2024/01/02 08:11:15;;;;;;;0.32;0.32;;;;;;;8.27;100.00;97451.38;5093844;28;20087;-60
2024/01/02 08:13:42;;;;;;;0.38;0.38;;;;;;;8.32;100.00;97454.03;5059663;28;20487;-59
2024/01/02 08:16:10;;;;;;;0.30;0.30;;;;;;;8.39;100.00;97443.09;5089425;28;20519;-59
2024/01/02 08:18:43;;;;;;;0.30;0.30;;;;;;;8.43;100.00;97439.59;5088798;28;20740;-60
2024/01/02 08:21:10;;;;;;;0.20;0.20;;;;;;;8.33;100.00;97460.19;5090998;28;20166;-59
2024/01/02 08:23:38;;;;;;;0.28;0.28;;;;;;;8.46;100.00;97464.97;5090280;28;20070;-60
2024/01/02 08:26:11;;;;;;;0.20;0.20;;;;;;;8.48;100.00;97460.16;5093128;28;20082;-60
2024/01/02 08:28:42;;;;;;;0.20;0.20;;;;;;;8.35;100.00;97469.50;5086705;28;20035;-60
2024/01/02 08:31:09;;;;;;;0.30;0.30;;;;;;;8.38;100.00;97462.84;5072105;28;20093;-61
2024/01/02 08:33:36;;;;;;;0.30;0.30;;;;;;;8.33;100.00;97455.63;5093520;28;20108;-62
2024/01/02 08:36:06;;;;;;;0.20;0.20;;;;;;;8.46;100.00;97464.16;5091748;28;20128;-60
2024/01/02 08:38:33;;;;;;;0.30;0.30;;;;;;;8.39;100.00;97451.91;5090250;28;20062;-60
2024/01/02 08:41:00;;;;;;;0.30;0.30;;;;;;;8.40;100.00;97466.06;5069311;28;20121;-59
2024/01/02 08:43:29;;;;;;;0.38;0.38;;;;;;;8.37;100.00;97474.59;5095983;28;20050;-59
2024/01/02 08:45:56;;;;;;;0.30;0.30;;;;;;;8.40;100.00;97477.53;5090375;28;20548;-59
2024/01/02 08:48:23;;;;;;;0.30;0.30;;;;;;;8.48;100.00;97467.38;5087124;28;20044;-59
2024/01/02 08:50:51;;;;;;;0.30;0.30;;;;;;;8.49;100.00;97458.31;5092318;28;20040;-60
2024/01/02 08:53:18;;;;;;;0.30;0.30;;;;;;;8.48;100.00;97478.84;5091436;28;20502;-61
2024/01/02 08:55:45;;;;;;;0.20;0.20;;;;;;;8.45;100.00;97473.25;5093476;28;20052;-61
2024/01/02 08:58:13;;;;;;;0.30;0.30;;;;;;;8.42;100.00;97480.75;5092630;28;20600;-61
2024/01/02 09:00:42;;;;;;;0.40;0.40;;;;;;;8.46;100.00;97474.84;5098343;28;20040;-60
2024/01/02 09:03:09;;;;;;;0.40;0.40;;;;;;;8.55;100.00;97475.91;5093754;28;20505;-60
2024/01/02 09:05:37;;;;;;;0.38;0.38;;;;;;;8.57;100.00;97473.75;5091949;28;20067;-60
2024/01/02 09:08:05;;;;;;;0.30;0.30;;;;;;;8.62;100.00;97469.19;5096740;28;20534;-62
2024/01/02 09:10:32;;;;;;;0.30;0.30;;;;;;;8.60;100.00;97500.72;5072884;28;20214;-61
2024/01/02 09:12:59;;;;;;;0.30;0.30;;;;;;;8.63;100.00;97484.13;5090161;28;20486;-61
2024/01/02 09:15:26;;;;;;;0.30;0.30;;;;;;;8.61;100.00;97482.81;5089730;28;20328;-60
2024/01/02 09:17:54;;;;;;;0.20;0.20;;;;;;;8.66;100.00;97479.34;5092375;28;20525;-60
2024/01/02 09:20:22;;;;;;;0.20;0.20;;;;;;;8.70;100.00;97475.84;5089401;28;20048;-61
2024/01/02 09:22:50;;;;;;;0.30;0.30;;;;;;;8.69;100.00;97484.94;5094963;28;20541;-60
2024/01/02 09:25:18;;;;;;;0.30;0.30;;;;;;;8.87;100.00;97493.44;5088327;28;20441;-60
2024/01/02 09:27:45;;;;;;;0.22;0.22;;;;;;;8.77;100.00;97492.38;5091950;28;20082;-60
2024/01/02 09:30:14;;;;;;;0.30;0.30;;;;;;;8.84;100.00;97503.59;5068914;28;20864;-60
2024/01/02 09:32:42;;;;;;;0.30;0.30;;;;;;;8.78;100.00;97499.31;5095453;28;20051;-60
2024/01/02 09:35:11;;;;;;;0.28;0.28;;;;;;;8.86;100.00;97497.94;5090452;28;20123;-60
2024/01/02 09:37:38;;;;;;;0.25;0.25;;;;;;;8.83;100.00;97499.28;5091555;28;20081;-61
2024/01/02 09:40:13;;;;;;;0.30;0.30;;;;;;;9.02;100.00;97515.53;5093893;28;20308;-61
2024/01/02 09:42:42;;;;;;;0.20;0.20;;;;;;;8.90;100.00;97503.56;5092053;28;20559;-61
2024/01/02 09:45:13;;;;;;;0.20;0.20;;;;;;;9.00;100.00;97511.53;5075670;28;20127;-60
2024/01/02 09:47:55;;;;;;;0.30;0.30;;;;;;;8.98;100.00;97516.34;5088440;28;20109;-60
2024/01/02 09:50:28;;;;;;;0.25;0.25;;;;;;;8.99;100.00;97520.63;5088198;28;20501;-61
2024/01/02 09:53:08;;;;;;;0.30;0.30;;;;;;;9.04;100.00;97509.94;5095512;28;20459;-61
2024/01/02 09:55:38;;;;;;;0.20;0.20;;;;;;;8.99;100.00;97539.34;5099937;28;20151;-59
2024/01/02 09:58:14;;;;;;;0.20;0.20;;;;;;;8.99;100.00;97536.66;5087945;28;20442;-59
2024/01/02 10:00:47;;;;;;;0.30;0.30;;;;;;;9.13;100.00;97537.66;5091201;28;20036;-59
2024/01/02 10:03:23;;;;;;;0.30;0.30;;;;;;;9.02;100.00;97528.09;5090610;28;20548;-60
2024/01/02 10:05:59;;;;;;;0.32;0.32;;;;;;;9.01;100.00;97523.81;5092955;28;20140;-61
2024/01/02 10:08:45;;;;;;;0.20;0.20;;;;;;;8.93;100.00;97506.47;5092765;28;20043;-59
2024/01/02 10:11:18;;;;;;;0.20;0.20;;;;;;;9.11;100.00;97505.09;5093967;28;20154;-63
2024/01/02 10:13:49;;;;;;;0.20;0.20;;;;;;;9.05;100.00;97514.19;5089486;28;20096;-62
2024/01/02 10:16:22;;;;;;;0.20;0.20;;;;;;;8.98;100.00;97508.34;5092524;28;20566;-59
2024/01/02 10:19:03;;;;;;;0.20;0.20;;;;;;;8.98;100.00;97513.69;5093631;28;20040;-59
2024/01/02 10:21:43;;;;;;;0.30;0.30;;;;;;;9.02;100.00;97512.06;5094772;28;20044;-59
2024/01/02 10:24:24;;;;;;;0.40;0.40;;;;;;;8.90;100.00;97498.22;5088425;28;20043;-61
2024/01/02 10:26:57;;;;;;;;;;;;;;;8.88;100.00;97495.00;5093820;28;20048;-59
2024/01/02 10:29:28;;;;;;;0.30;0.30;;;;;;;8.89;100.00;97488.63;5099174;28;19930;-61
2024/01/02 10:31:57;;;;;;;0.20;0.20;;;;;;;8.81;100.00;97476.59;5091089;28;20083;-61
2024/01/02 10:34:33;;;;;;;0.30;0.30;;;;;;;8.76;100.00;97480.13;5071048;28;22659;-61
2024/01/02 10:37:04;;;;;;;0.20;0.20;;;;;;;8.83;100.00;97477.91;5091813;28;20571;-61
2024/01/02 10:39:35;;;;;;;0.25;0.25;;;;;;;9.03;100.00;97463.66;5096699;28;20460;-61
2024/01/02 10:42:10;;;;;;;0.20;0.20;;;;;;;9.07;100.00;97471.97;5093151;28;20489;-60
2024/01/02 10:44:43;;;;;;;0.20;0.20;;;;;;;8.99;100.00;97467.19;5074718;28;20119;-60
2024/01/02 10:47:14;;;;;;;0.35;0.35;;;;;;;8.96;100.00;97473.06;5092573;28;20048;-61
2024/01/02 10:49:41;;;;;;;0.20;0.20;;;;;;;8.89;100.00;97470.72;5094573;28;20668;-60
2024/01/02 10:52:25;;;;;;;0.28;0.28;;;;;;;8.81;100.00;97466.75;5090405;28;20131;-60
2024/01/02 10:54:55;;;;;;;0.20;0.20;;;;;;;8.84;100.00;97468.84;5092083;28;20040;-60
2024/01/02 10:57:28;;;;;;;0.20;0.20;;;;;;;8.91;100.00;97459.72;5088661;28;20064;-60
2024/01/02 11:00:07;;;;;;;0.40;0.40;;;;;;;8.90;100.00;97460.81;5095882;28;20489;-60
2024/01/02 11:02:47;;;;;;;0.30;0.30;;;;;;;8.97;100.00;97454.09;5093711;28;20095;-60
2024/01/02 11:05:18;;;;;;;0.30;0.30;;;;;;;8.98;100.00;97455.69;5076296;28;20119;-60
2024/01/02 11:07:50;;;;;;;0.20;0.20;;;;;;;8.91;100.00;97444.53;5090323;28;20048;-61
2024/01/02 11:10:19;;;;;;;0.30;0.30;;;;;;;8.91;100.00;97446.38;5089012;28;20048;-61
2024/01/02 11:12:53;;;;;;;0.30;0.30;;;;;;;8.97;100.00;97442.63;5085971;28;20055;-61
2024/01/02 11:15:20;;;;;;;0.22;0.22;;;;;;;8.93;100.00;97436.22;5097400;28;20047;-61
2024/01/02 11:17:48;;;;;;;0.25;0.25;;;;;;;8.85;100.00;97440.25;5093140;28;20049;-61
2024/01/02 11:20:18;;;;;;;0.30;0.30;;;;;;;8.80;100.00;97427.72;5088958;28;20070;-60
2024/01/02 11:22:51;;;;;;;0.20;0.20;;;;;;;8.79;100.00;97436.03;5094736;28;20166;-61
2024/01/02 11:25:20;;;;;;;0.30;0.30;;;;;;;8.75;100.00;97430.41;5089601;28;20058;-61
2024/01/02 11:27:47;;;;;;;0.30;0.30;;;;;;;8.67;100.00;97412.31;5087965;28;20044;-61
2024/01/02 11:30:14;;;;;;;0.30;0.30;;;;;;;8.67;100.00;97416.84;5075554;28;20369;-61
2024/01/02 11:32:49;;;;;;;0.28;0.28;;;;;;;8.72;100.00;97420.28;5093966;28;20087;-60
2024/01/02 11:35:17;;;;;;;0.25;0.25;;;;;;;8.60;100.00;97411.78;5085804;28;20052;-60
2024/01/02 11:37:46;;;;;;;0.30;0.30;;;;;;;8.59;100.00;97412.88;5088749;28;20046;-60
2024/01/02 11:40:21;;;;;;;0.20;0.20;;;;;;;8.55;100.00;97403.81;5089272;28;20048;-60